• Join FlightAware (Why Join?)
  • Login
  • US Flag 
04:04AM EDT


 

Airport Tracker/Info


-or-


 

Live Flight TrackerFlight Track Log ✈ AWI3623 ✈ 12-May-2013 ✈ KBDL - KPHL

Flight Track Log - Related Links

Times and Time Zones

All times are in EDT time to prevent confusion due to time zone crossing. See the AWI3623 flight status page for this flight to view local times or setup timezone preferences in your user account.

Time Position Orientation Groundspeed Altitude Reporting Facility
EDT Latitude Longitude Course Direction KTS MPH feet Rate Location/Type
03:28PM 41.9436 -72.7025 180° South 138 159 900  Level Boston Center
03:29PM 41.9164 -72.7442 229° Southwest 189 217 2,900 1,800 Climbing Boston Center
03:30PM 41.8539 -72.7661 195° South 228 262 4,800 1,140 Climbing Boston Center
03:31PM 41.6797 -72.5565 160° South  Level FlightAware Approximate
03:31PM 41.7936 -72.7381 161° South 236 272 5,300  Level Boston Center
03:32PM 41.6046 -72.4902 132° Southeast  Level FlightAware Approximate
03:32PM 41.7186 -72.6986 159° South 256 295 8,600  Level Boston Center
03:33PM 41.5443 -72.3961 129° Southeast  Level FlightAware Approximate
03:33PM 41.6728 -72.6236 129° Southeast 276 318 11,000  Level Boston Center
03:34PM 41.4682 -72.3500 180° South  Level FlightAware Approximate
03:34PM 41.6167 -72.5261 128° Southeast 298 343 13,600  Level Boston Center
03:35PM 41.5625 -72.4483 133° Southeast 312 359 15,600 2,100 Climbing Boston Center
03:36PM 41.4792 -72.4400 176° South 267 307 17,900 2,100 Climbing Boston Center
03:37PM 41.4106 -72.4344 177° South 277 319 19,900 1,020 Climbing Boston Center
03:38PM 41.3250 -72.4344 180° South 288 331 20,000  Climbing Boston Center
03:39PM 41.2478 -72.5008 213° Southwest 296 341 20,000  Level Boston Center
03:40PM 41.1792 -72.5725 218° Southwest 303 349 20,000  Level Boston Center
03:41PM 41.1061 -72.6303 211° Southwest 308 354 20,000  Level Boston Center
03:42PM 41.0308 -72.6906 211° Southwest 315 362 20,000  Level Boston Center
03:43PM 40.9600 -72.7617 217° Southwest 320 368 20,000  Level Boston Center
03:44PM 40.8825 -72.8081 204° Southwest 320 368 20,000  Level Boston Center
03:45PM 40.8075 -72.8622 209° Southwest 320 368 20,000  Level Boston Center
03:48PM 40.6200 -73.0022 210° Southwest 320 368 20,000  Level New York Center
03:49PM 40.5439 -73.0597 210° Southwest 320 368 20,000  Level New York Center
03:50PM 40.4697 -73.1172 211° Southwest 320 368 20,000  Level New York Center
03:51PM 40.3956 -73.1719 209° Southwest 314 361 20,000  Level New York Center
03:52PM 40.3194 -73.2292 210° Southwest 314 361 20,000  Level New York Center
03:53PM 40.2453 -73.2864 210° Southwest 314 361 20,000  Level New York Center
03:54PM 40.1711 -73.3433 210° Southwest 314 361 20,000  Level New York Center
03:55PM 40.0950 -73.3975 209° Southwest 314 361 20,000  Level New York Center
03:56PM 40.0206 -73.4569 211° Southwest 314 361 20,000  Level New York Center
03:57PM 39.9486 -73.5056 207° Southwest 314 361 20,000  Level New York Center
03:58PM 39.8844 -73.5761 220° Southwest 314 361 20,000 -120 Level New York Center
03:59PM 39.8261 -73.6631 229° Southwest 308 354 19,800 -660 Descending New York Center
04:00PM 39.7697 -73.7525 231° Southwest 319 367 18,700 -1,200 Descending New York Center
04:01PM 39.7233 -73.8244 230° Southwest 318 366 17,700 -1,140 Descending Washington Center
04:02PM 39.6664 -73.9122 230° Southwest 313 360 16,700 -1,020 Descending Washington Center
04:03PM 39.6133 -73.9969 231° Southwest 308 354 15,800 -1,260 Descending Washington Center
04:04PM 39.5581 -74.0842 231° Southwest 308 354 14,300 -900 Descending Washington Center
04:05PM 39.4964 -74.1556 222° Southwest 300 345 14,000 -180 Descending Washington Center
04:06PM 39.4219 -74.1944 202° Southwest 288 331 14,000  Level Washington Center
04:07PM 39.3453 -74.2308 200° South 293 337 14,000  Level Washington Center
04:08PM 39.2664 -74.2700 201° Southwest 300 345 14,000 -60 Level Washington Center
04:09PM 39.2153 -74.3433 228° Southwest 275 316 13,900  Descending Washington Center
04:10PM 39.2536 -74.4417 297° West 237 273 14,000 -420 Climbing Washington Center
04:11PM 39.3044 -74.5347 305° West 260 299 13,100 -1,380 Descending Washington Center
04:13PM 39.4000 -74.7167 304° West 256 295 9,700 -1,320 Descending Philadelphia TRACON
04:14PM 39.4500 -74.7833 314° West 257 296 9,000 -540 Descending Philadelphia TRACON
04:15PM 39.5000 -74.8833 303° West 260 299 8,600 -960 Descending Philadelphia TRACON
04:16PM 39.5000 -74.9667 270° West 248 285 7,000 -1,380 Descending Philadelphia TRACON
04:17PM 39.5167 -75.0500 285° West 245 282 5,900 -1,140 Descending Philadelphia TRACON
04:18PM 39.5500 -75.1000 311° West 239 275 5,000 -540 Descending Philadelphia TRACON
04:19PM 39.6167 -75.1167 349° North 232 267 5,000 -300 Level Philadelphia TRACON
04:20PM 39.6500 -75.1500 322° Northwest 154 177 4,500 -780 Descending Philadelphia TRACON
04:21PM 39.7000 -75.1333 14° North 176 203 3,500 -1,020 Descending Philadelphia TRACON
04:22PM 39.7333 -75.1500 339° North 150 173 2,500 -1,020 Descending Philadelphia TRACON